Observation data for Seagraves on 12/10/2018      Previous  Date       Current Mesonet Observations  Soil Data  Daily Summary Page  Observations in Plain Language
KSGV 100600Z 29005KT M03/M03 A3039 RMK A01 T10281033  RH  097%=      5-min Rain = 0
KSGV 100605Z 30005KT M03/M04 A3039 RMK A01 T10301035  RH  097%=      5-min Rain = 0
KSGV 100610Z 30006KT M03/M04 A3039 RMK A01 T10301035  RH  097%=      5-min Rain = 0
KSGV 100615Z 30005KT M03/M03 A3038 RMK A01 T10271031  RH  098%=      5-min Rain = 0
KSGV 100620Z 30005KT M03/M03 A3038 RMK A01 T10271032  RH  097%=      5-min Rain = 0
KSGV 100625Z 30004KT M03/M03 A3038 RMK A01 T10291034  RH  097%=      5-min Rain = 0
KSGV 100630Z 30004KT M03/M03 A3038 RMK A01 T10281033  RH  097%=      5-min Rain = 0
KSGV 100635Z 30004KT M03/M03 A3038 RMK A01 T10261031  RH  098%=      5-min Rain = 0
KSGV 100640Z 31004KT M03/M03 A3038 RMK A01 T10261030  RH  098%=      5-min Rain = 0
KSGV 100645Z 30004KT M03/M03 A3038 RMK A01 T10261030  RH  097%=      5-min Rain = 0
KSGV 100650Z 30005KT M03/M03 A3037 RMK A01 T10261031  RH  097%=      5-min Rain = 0
KSGV 100655Z 30004KT M03/M03 A3037 RMK A01 T10251029  RH  098%=      5-min Rain = 0
KSGV 100700Z 29003KT M02/M03 A3037 RMK A01 T10241029  RH  097%=      5-min Rain = 0
KSGV 100705Z 29003KT M02/M03 A3037 RMK A01 T10221026  RH  098%=      5-min Rain = 0
KSGV 100710Z 29003KT M02/M02 A3036 RMK A01 T10201024  RH  098%=      5-min Rain = 0
KSGV 100715Z 29004KT M02/M02 A3036 RMK A01 T10191023  RH  098%=      5-min Rain = 0
KSGV 100720Z 30003KT M02/M02 A3036 RMK A01 T10191023  RH  098%=      5-min Rain = 0
KSGV 100725Z 29004KT M02/M02 A3036 RMK A01 T10191023  RH  098%=      5-min Rain = 0
KSGV 100730Z 29005KT M02/M03 A3036 RMK A01 T10211025  RH  097%=      5-min Rain = 0
KSGV 100735Z 30006KT M02/M03 A3036 RMK A01 T10221027  RH  097%=      5-min Rain = 0
KSGV 100740Z 31005KT M02/M03 A3036 RMK A01 T10231028  RH  097%=      5-min Rain = 0
KSGV 100745Z 31005KT M02/M03 A3036 RMK A01 T10231028  RH  097%=      5-min Rain = 0
KSGV 100750Z 31005KT M02/M03 A3036 RMK A01 T10221026  RH  098%=      5-min Rain = 0
KSGV 100755Z 31005KT M02/M02 A3036 RMK A01 T10201024  RH  098%=      5-min Rain = 0
KSGV 100800Z 31005KT M02/M02 A3036 RMK A01 T10191024  RH  098%=      5-min Rain = 0
KSGV 100805Z 30005KT M02/M02 A3036 RMK A01 T10191024  RH  097%=      5-min Rain = 0
KSGV 100810Z 30005KT M02/M02 A3036 RMK A01 T10191023  RH  097%=      5-min Rain = 0
KSGV 100815Z 30006KT M02/M02 A3036 RMK A01 T10191024  RH  097%=      5-min Rain = 0
KSGV 100820Z 30005KT M02/M02 A3035 RMK A01 T10191024  RH  097%=      5-min Rain = 0
KSGV 100825Z 31005KT M02/M02 A3035 RMK A01 T10191024  RH  097%=      5-min Rain = 0
KSGV 100830Z 31004KT M02/M03 A3035 RMK A01 T10201025  RH  097%=      5-min Rain = 0
KSGV 100835Z 30004KT M02/M03 A3035 RMK A01 T10211026  RH  097%=      5-min Rain = 0
KSGV 100840Z 31004KT M02/M03 A3035 RMK A01 T10201025  RH  097%=      5-min Rain = 0
KSGV 100845Z 32004KT M02/M03 A3035 RMK A01 T10201025  RH  097%=      5-min Rain = 0
KSGV 100850Z 32004KT M02/M03 A3034 RMK A01 T10211026  RH  097%=      5-min Rain = 0
KSGV 100855Z 32004KT M02/M03 A3034 RMK A01 T10211026  RH  097%=      5-min Rain = 0
KSGV 100900Z 32004KT M02/M03 A3034 RMK A01 T10211025  RH  097%=      5-min Rain = 0
KSGV 100905Z 32004KT M02/M03 A3034 RMK A01 T10201025  RH  097%=      5-min Rain = 0
KSGV 100910Z 32005KT M02/M03 A3034 RMK A01 T10211026  RH  097%=      5-min Rain = 0
KSGV 100915Z 31005KT M02/M03 A3034 RMK A01 T10221027  RH  097%=      5-min Rain = 0
KSGV 100920Z 30004KT M02/M03 A3034 RMK A01 T10231029  RH  097%=      5-min Rain = 0
KSGV 100925Z 29004KT M03/M03 A3034 RMK A01 T10251031  RH  096%=      5-min Rain = 0
KSGV 100930Z 29004KT M03/M03 A3034 RMK A01 T10271033  RH  096%=      5-min Rain = 0
KSGV 100935Z 30004KT M03/M03 A3034 RMK A01 T10251030  RH  097%=      5-min Rain = 0
KSGV 100940Z 30004KT M02/M03 A3034 RMK A01 T10231027  RH  097%=      5-min Rain = 0
KSGV 100945Z 29004KT M03/M03 A3034 RMK A01 T10261031  RH  097%=      5-min Rain = 0
KSGV 100950Z 29004KT M03/M03 A3034 RMK A01 T10281034  RH  097%=      5-min Rain = 0
KSGV 100955Z 28003KT M03/M03 A3034 RMK A01 T10281033  RH  097%=      5-min Rain = 0
KSGV 101000Z 28003KT M03/M03 A3034 RMK A01 T10261031  RH  097%=      5-min Rain = 0
KSGV 101005Z 30003KT M02/M03 A3034 RMK A01 T10241028  RH  098%=      5-min Rain = 0
KSGV 101010Z 31004KT M02/M03 A3034 RMK A01 T10221026  RH  098%=      5-min Rain = 0
KSGV 101015Z 30004KT M02/M03 A3035 RMK A01 T10231027  RH  097%=      5-min Rain = 0
KSGV 101020Z 30004KT M02/M03 A3035 RMK A01 T10231028  RH  097%=      5-min Rain = 0
KSGV 101025Z 31004KT M02/M03 A3034 RMK A01 T10231028  RH  097%=      5-min Rain = 0
KSGV 101030Z 29004KT M02/M03 A3034 RMK A01 T10241029  RH  097%=      5-min Rain = 0
KSGV 101035Z 27004KT M03/M03 A3034 RMK A01 T10281033  RH  096%=      5-min Rain = 0
KSGV 101040Z 25004KT M03/M04 A3034 RMK A01 T10311036  RH  096%=      5-min Rain = 0
KSGV 101045Z 26005KT M03/M04 A3034 RMK A01 T10311036  RH  097%=      5-min Rain = 0
KSGV 101050Z 25005KT M03/M03 A3034 RMK A01 T10281033  RH  097%=      5-min Rain = 0
KSGV 101055Z 27005KT M03/M03 A3034 RMK A01 T10281033  RH  097%=      5-min Rain = 0
KSGV 101100Z 27004KT M03/M03 A3034 RMK A01 T10281033  RH  097%=      5-min Rain = 0
KSGV 101105Z 28004KT M03/M03 A3034 RMK A01 T10291034  RH  097%=      5-min Rain = 0
KSGV 101110Z 30004KT M03/M04 A3034 RMK A01 T10311037  RH  097%=      5-min Rain = 0
KSGV 101115Z 29003KT M03/M04 A3034 RMK A01 T10331038  RH  097%=      5-min Rain = 0
KSGV 101120Z 30004KT M03/M03 A3034 RMK A01 T10301034  RH  097%=      5-min Rain = 0
KSGV 101125Z 30004KT M03/M03 A3034 RMK A01 T10291033  RH  097%=      5-min Rain = 0
KSGV 101130Z 30005KT M03/M04 A3034 RMK A01 T10301035  RH  097%=      5-min Rain = 0
KSGV 101135Z 30005KT M03/M03 A3034 RMK A01 T10291034  RH  097%=      5-min Rain = 0
KSGV 101140Z 30004KT M03/M04 A3034 RMK A01 T10301035  RH  097%=      5-min Rain = 0
KSGV 101145Z 29004KT M03/M04 A3034 RMK A01 T10301036  RH  097%=      5-min Rain = 0
KSGV 101150Z 29005KT M03/M04 A3034 RMK A01 T10301035  RH  097%=      5-min Rain = 0
KSGV 101155Z 28006KT M03/M03 A3035 RMK A01 T10271031  RH  097%=      5-min Rain = 0
KSGV 101200Z 28006KT M02/M03 A3035 RMK A01 T10241029  RH  097%=      5-min Rain = 0
KSGV 101205Z 29006KT M02/M03 A3035 RMK A01 T10241029  RH  097%=      5-min Rain = 0
KSGV 101210Z 30006KT M03/M03 A3035 RMK A01 T10251031  RH  096%=      5-min Rain = 0
KSGV 101215Z 29006KT M03/M03 A3035 RMK A01 T10261032  RH  096%=      5-min Rain = 0
KSGV 101220Z 29006KT M03/M03 A3035 RMK A01 T10271032  RH  096%=      5-min Rain = 0
KSGV 101225Z 29006KT M03/M03 A3035 RMK A01 T10271033  RH  096%=      5-min Rain = 0
KSGV 101230Z 29006KT M03/M03 A3035 RMK A01 T10261032  RH  096%=      5-min Rain = 0
KSGV 101235Z 29005KT M03/M03 A3035 RMK A01 T10271032  RH  096%=      5-min Rain = 0
KSGV 101240Z 30006KT M03/M03 A3035 RMK A01 T10271033  RH  097%=      5-min Rain = 0
KSGV 101245Z 29006KT M03/M03 A3036 RMK A01 T10261032  RH  097%=      5-min Rain = 0
KSGV 101250Z 29006KT M03/M03 A3036 RMK A01 T10261032  RH  097%=      5-min Rain = 0
KSGV 101255Z 29006KT M03/M03 A3036 RMK A01 T10261032  RH  097%=      5-min Rain = 0
KSGV 101300Z 29006KT M03/M03 A3036 RMK A01 T10261032  RH  097%=      5-min Rain = 0
KSGV 101305Z 29006KT M03/M03 A3036 RMK A01 T10271032  RH  097%=      5-min Rain = 0
KSGV 101310Z 30006KT M03/M03 A3036 RMK A01 T10271032  RH  097%=      5-min Rain = 0
KSGV 101315Z 29006KT M03/M03 A3036 RMK A01 T10271033  RH  097%=      5-min Rain = 0
KSGV 101320Z 29005KT M03/M03 A3036 RMK A01 T10271032  RH  097%=      5-min Rain = 0
KSGV 101325Z 29006KT M03/M03 A3036 RMK A01 T10271033  RH  097%=      5-min Rain = 0
KSGV 101330Z 29006KT M03/M03 A3036 RMK A01 T10281034  RH  096%=      5-min Rain = 0
KSGV 101335Z 29006KT M03/M03 A3036 RMK A01 T10291034  RH  096%=      5-min Rain = 0
KSGV 101340Z 29006KT M03/M03 A3036 RMK A01 T10281034  RH  096%=      5-min Rain = 0
KSGV 101345Z 29005KT M03/M03 A3036 RMK A01 T10291034  RH  096%=      5-min Rain = 0
KSGV 101350Z 29006KT M03/M04 A3036 RMK A01 T10291035  RH  096%=      5-min Rain = 0
KSGV 101355Z 30006KT M03/M03 A3036 RMK A01 T10281034  RH  097%=      5-min Rain = 0
KSGV 101400Z 30005KT M03/M03 A3036 RMK A01 T10271032  RH  097%=      5-min Rain = 0
KSGV 101405Z 30005KT M03/M03 A3036 RMK A01 T10261031  RH  097%=      5-min Rain = 0
KSGV 101410Z 30005KT M02/M03 A3036 RMK A01 T10231029  RH  097%=      5-min Rain = 0
KSGV 101415Z 30005KT M02/M03 A3036 RMK A01 T10211027  RH  096%=      5-min Rain = 0
KSGV 101420Z 30006KT M02/M02 A3036 RMK A01 T10181024  RH  096%=      5-min Rain = 0
KSGV 101425Z 30006KT M02/M02 A3036 RMK A01 T10151022  RH  096%=      5-min Rain = 0
KSGV 101430Z 30006KT M01/M02 A3036 RMK A01 T10131019  RH  096%=      5-min Rain = 0
KSGV 101435Z 29006KT M01/M02 A3036 RMK A01 T10091016  RH  096%=      5-min Rain = 0
KSGV 101440Z 29006KT M01/M01 A3036 RMK A01 T10061013  RH  096%=      5-min Rain = 0
KSGV 101445Z 29006KT M00/M01 A3036 RMK A01 T10031010  RH  095%=      5-min Rain = 0
KSGV 101450Z 29007KT 00/01 A3037 RMK A01 T000000-9  RH  095%=      5-min Rain = 0
KSGV 101455Z 29007KT 00/M01 A3037 RMK A01 T00021008  RH  094%=      5-min Rain = 0
KSGV 101500Z 29006KT 00/M01 A3037 RMK A01 T00041006  RH  094%=      5-min Rain = 0
KSGV 101505Z 29005KT 01/M00 A3037 RMK A01 T00061004  RH  094%=      5-min Rain = 0
KSGV 101510Z 30005KT 01/M00 A3037 RMK A01 T00101001  RH  094%=      5-min Rain = 0
KSGV 101515Z 30005KT 01/00 A3037 RMK A01 T00130003  RH  094%=      5-min Rain = 0
KSGV 101520Z 30005KT 02/01 A3038 RMK A01 T00160005  RH  094%=      5-min Rain = 0
KSGV 101525Z 30003KT 02/01 A3038 RMK A01 T00210009  RH  093%=      5-min Rain = 0
KSGV 101530Z 30005KT 03/01 A3038 RMK A01 T00250013  RH  093%=      5-min Rain = 0
KSGV 101535Z 31005KT 03/02 A3038 RMK A01 T00290015  RH  092%=      5-min Rain = 0
KSGV 101540Z 31005KT 03/01 A3038 RMK A01 T00310014  RH  090%=      5-min Rain = 0
KSGV 101545Z 31006KT 03/02 A3038 RMK A01 T00330016  RH  090%=      5-min Rain = 0
KSGV 101550Z 30006KT 04/02 A3038 RMK A01 T00360017  RH  089%=      5-min Rain = 0
KSGV 101555Z 31005KT 04/02 A3038 RMK A01 T00390018  RH  088%=      5-min Rain = 0
KSGV 101600Z 30005KT 04/02 A3038 RMK A01 T00420020  RH  087%=      5-min Rain = 0
KSGV 101605Z 31004KT 05/02 A3038 RMK A01 T00460021  RH  085%=      5-min Rain = 0
KSGV 101610Z 29004KT 05/02 A3038 RMK A01 T00500024  RH  084%=      5-min Rain = 0
KSGV 101615Z 29004KT 06/03 A3038 RMK A01 T00560026  RH  083%=      5-min Rain = 0
KSGV 101620Z 28005KT 06/02 A3038 RMK A01 T00580023  RH  079%=      5-min Rain = 0
KSGV 101625Z 29005KT 06/02 A3038 RMK A01 T00600022  RH  078%=      5-min Rain = 0
KSGV 101630Z 29004KT 06/02 A3038 RMK A01 T00640024  RH  077%=      5-min Rain = 0
KSGV 101635Z 29004KT 07/02 A3038 RMK A01 T00670023  RH  075%=      5-min Rain = 0
KSGV 101640Z 29005KT 07/02 A3038 RMK A01 T00720022  RH  072%=      5-min Rain = 0
KSGV 101645Z 29005KT 07/02 A3038 RMK A01 T00740018  RH  068%=      5-min Rain = 0
KSGV 101650Z 29005KT 08/02 A3038 RMK A01 T00780018  RH  067%=      5-min Rain = 0
KSGV 101655Z 28004KT 08/02 A3037 RMK A01 T00810017  RH  065%=      5-min Rain = 0
KSGV 101700Z 29005KT 08/01 A3038 RMK A01 T00840012  RH  061%=      5-min Rain = 0
KSGV 101705Z 29005KT 09/01 A3037 RMK A01 T00880010  RH  059%=      5-min Rain = 0
KSGV 101710Z 27005KT 09/01 A3037 RMK A01 T00890006  RH  057%=      5-min Rain = 0
KSGV 101715Z 28005KT 09/01 A3037 RMK A01 T00890008  RH  057%=      5-min Rain = 0
KSGV 101720Z 28005KT 09/01 A3037 RMK A01 T00920010  RH  058%=      5-min Rain = 0
KSGV 101725Z 27004KT 09/02 A3037 RMK A01 T00940015  RH  059%=      5-min Rain = 0
KSGV 101730Z 26004KT 10/02 A3037 RMK A01 T00970015  RH  058%=      5-min Rain = 0
KSGV 101735Z 27005KT 10/01 A3036 RMK A01 T00990012  RH  055%=      5-min Rain = 0
KSGV 101740Z 25006KT 10/01 A3036 RMK A01 T01030014  RH  055%=      5-min Rain = 0
KSGV 101745Z 25007KT 11/01 A3036 RMK A01 T01050011  RH  053%=      5-min Rain = 0
KSGV 101750Z 25007KT 11/01 A3035 RMK A01 T01050005  RH  050%=      5-min Rain = 0
KSGV 101755Z 25007KT 11/01 A3035 RMK A01 T01070005  RH  050%=      5-min Rain = 0
KSGV 101800Z 26007KT 11/01 A3035 RMK A01 T01110007  RH  049%=      5-min Rain = 0
KSGV 101805Z 25007KT 11/01 A3035 RMK A01 T01100006  RH  049%=      5-min Rain = 0
KSGV 101810Z 25006KT 11/01 A3034 RMK A01 T01110007  RH  049%=      5-min Rain = 0
KSGV 101815Z 26006KT 11/01 A3034 RMK A01 T01120008  RH  049%=      5-min Rain = 0
KSGV 101820Z 27007KT 12/01 A3034 RMK A01 T01160009  RH  048%=      5-min Rain = 0
KSGV 101825Z 26007KT 12/01 A3033 RMK A01 T01180008  RH  047%=      5-min Rain = 0
KSGV 101830Z 26007KT 12/01 A3033 RMK A01 T01180007  RH  047%=      5-min Rain = 0
KSGV 101835Z 24007KT 12/01 A3033 RMK A01 T01220010  RH  047%=      5-min Rain = 0
KSGV 101840Z 24007KT 12/01 A3033 RMK A01 T01240009  RH  046%=      5-min Rain = 0
KSGV 101845Z 25006KT 12/01 A3032 RMK A01 T01240005  RH  044%=      5-min Rain = 0
KSGV 101850Z 24008KT 12/00 A3032 RMK A01 T01240003  RH  044%=      5-min Rain = 0
KSGV 101855Z 24007KT 12/00 A3032 RMK A01 T01240001  RH  043%=      5-min Rain = 0
KSGV 101900Z 24007KT 13/00 A3032 RMK A01 T01280004  RH  043%=      5-min Rain = 0
KSGV 101905Z 26008KT 13/00 A3031 RMK A01 T01290002  RH  042%=      5-min Rain = 0
KSGV 101910Z 25007KT 13/00 A3031 RMK A01 T012900-0  RH  042%=      5-min Rain = 0
KSGV 101915Z 25007KT 13/01 A3031 RMK A01 T01300005  RH  043%=      5-min Rain = 0
KSGV 101920Z 25006KT 13/00 A3031 RMK A01 T01300002  RH  042%=      5-min Rain = 0
KSGV 101925Z 25007KT 13/01 A3031 RMK A01 T01330005  RH  042%=      5-min Rain = 0
KSGV 101930Z 25008KT 13/00 A303 RMK A01 T01320002  RH  042%=      5-min Rain = 0
KSGV 101935Z 25007KT 13/00 A303 RMK A01 T01330004  RH  042%=      5-min Rain = 0
KSGV 101940Z 25008KT 14/00 A303 RMK A01 T01350004  RH  041%=      5-min Rain = 0
KSGV 101945Z 24009G14KT 14/M00 A303 RMK A01 T01361004  RH  039%=      5-min Rain = 0
KSGV 101950Z 26010KT 14/00 A303 RMK A01 T013500-0  RH  040%=      5-min Rain = 0
KSGV 101955Z 24009KT 14/M00 A303 RMK A01 T01351002  RH  039%=      5-min Rain = 0
KSGV 102000Z 27009KT 14/00 A3029 RMK A01 T01380004  RH  040%=      5-min Rain = 0
KSGV 102005Z 26007KT 14/00 A3029 RMK A01 T01350000  RH  040%=      5-min Rain = 0
KSGV 102010Z 28008KT 14/00 A3029 RMK A01 T01370002  RH  040%=      5-min Rain = 0
KSGV 102015Z 28007KT 14/00 A3028 RMK A01 T01390003  RH  040%=      5-min Rain = 0
KSGV 102020Z 27007KT 14/01 A3028 RMK A01 T01400005  RH  040%=      5-min Rain = 0
KSGV 102025Z 27008KT 14/01 A3028 RMK A01 T01410005  RH  040%=      5-min Rain = 0
KSGV 102030Z 27008KT 14/01 A3028 RMK A01 T01410005  RH  040%=      5-min Rain = 0
KSGV 102035Z 25006KT 14/00 A3028 RMK A01 T01410004  RH  040%=      5-min Rain = 0
KSGV 102040Z 25005KT 14/00 A3028 RMK A01 T01400002  RH  039%=      5-min Rain = 0
KSGV 102045Z 27006KT 14/00 A3027 RMK A01 T01410002  RH  039%=      5-min Rain = 0
KSGV 102050Z 27006KT 14/M00 A3027 RMK A01 T01401001  RH  038%=      5-min Rain = 0
KSGV 102055Z 26004KT 14/M00 A3027 RMK A01 T01401001  RH  038%=      5-min Rain = 0
KSGV 102100Z 24005G10KT 14/M01 A3027 RMK A01 T01411006  RH  037%=      5-min Rain = 0
KSGV 102105Z 24005KT 14/M01 A3027 RMK A01 T01411007  RH  037%=      5-min Rain = 0
KSGV 102110Z 23004KT 14/M00 A3027 RMK A01 T01441004  RH  037%=      5-min Rain = 0
KSGV 102115Z 24004KT 15/M01 A3027 RMK A01 T01451008  RH  035%=      5-min Rain = 0
KSGV 102120Z 23006KT 15/M01 A3026 RMK A01 T01451011  RH  035%=      5-min Rain = 0
KSGV 102125Z 23005KT 14/M01 A3026 RMK A01 T01431013  RH  034%=      5-min Rain = 0
KSGV 102130Z 24004KT 14/M01 A3026 RMK A01 T01441013  RH  034%=      5-min Rain = 0
KSGV 102135Z 24005KT 15/M01 A3026 RMK A01 T01451005  RH  036%=      5-min Rain = 0
KSGV 102140Z 22004KT 15/M01 A3026 RMK A01 T01461006  RH  036%=      5-min Rain = 0
KSGV 102145Z 18004KT 14/M01 A3026 RMK A01 T01441006  RH  036%=      5-min Rain = 0
KSGV 102150Z 22006KT 15/M00 A3026 RMK A01 T01461002  RH  037%=      5-min Rain = 0
KSGV 102155Z 19006KT 14/M01 A3026 RMK A01 T01441006  RH  036%=      5-min Rain = 0
KSGV 102200Z 20006KT 14/M01 A3026 RMK A01 T01441007  RH  036%=      5-min Rain = 0
KSGV 102205Z 21008G14KT 14/M01 A3026 RMK A01 T01431006  RH  036%=      5-min Rain = 0
KSGV 102210Z 22007KT 14/M00 A3027 RMK A01 T01401002  RH  038%=      5-min Rain = 0
KSGV 102215Z 21006KT 14/M00 A3027 RMK A01 T01431004  RH  037%=      5-min Rain = 0
KSGV 102220Z 21007KT 15/M01 A3027 RMK A01 T01451010  RH  035%=      5-min Rain = 0
KSGV 102225Z 22007KT 14/M01 A3027 RMK A01 T01421009  RH  036%=      5-min Rain = 0
KSGV 102230Z 21007KT 14/M01 A3027 RMK A01 T01431008  RH  036%=      5-min Rain = 0
KSGV 102235Z 22007KT 14/M01 A3027 RMK A01 T01411005  RH  037%=      5-min Rain = 0
KSGV 102240Z 22007KT 14/M01 A3027 RMK A01 T01381006  RH  037%=      5-min Rain = 0
KSGV 102245Z 21007KT 13/M01 A3027 RMK A01 T01331007  RH  038%=      5-min Rain = 0
KSGV 102250Z 21006KT 13/M00 A3027 RMK A01 T01311001  RH  041%=      5-min Rain = 0
KSGV 102255Z 21005KT 13/00 A3027 RMK A01 T01290002  RH  042%=      5-min Rain = 0
KSGV 102300Z 21006KT 13/00 A3027 RMK A01 T01250000  RH  043%=      5-min Rain = 0
KSGV 102305Z 21006KT 12/01 A3027 RMK A01 T01240006  RH  045%=      5-min Rain = 0
KSGV 102310Z 20006KT 12/M00 A3027 RMK A01 T01221001  RH  043%=      5-min Rain = 0
KSGV 102315Z 20006KT 12/M00 A3027 RMK A01 T01181001  RH  044%=      5-min Rain = 0
KSGV 102320Z 20005KT 11/00 A3027 RMK A01 T01140001  RH  046%=      5-min Rain = 0
KSGV 102325Z 20006KT 11/00 A3027 RMK A01 T010600-0  RH  048%=      5-min Rain = 0
KSGV 102330Z 20006KT 10/00 A3027 RMK A01 T01010001  RH  050%=      5-min Rain = 0
KSGV 102335Z 20006KT 10/00 A3027 RMK A01 T00980000  RH  051%=      5-min Rain = 0
KSGV 102340Z 20005KT 09/00 A3027 RMK A01 T00940001  RH  053%=      5-min Rain = 0
KSGV 102345Z 20005KT 09/00 A3027 RMK A01 T00900000  RH  054%=      5-min Rain = 0
KSGV 102350Z 20006KT 09/00 A3027 RMK A01 T00850002  RH  057%=      5-min Rain = 0
KSGV 102355Z 20006KT 08/00 A3026 RMK A01 T00800004  RH  059%=      5-min Rain = 0
KSGV 110000Z 20006KT 08/00 A3027 RMK A01 T00780002  RH  059%=      5-min Rain = 0
KSGV 110005Z 20007KT 08/00 A3027 RMK A01 T00760003  RH  061%=      5-min Rain = 0
KSGV 110010Z 20007KT 07/00 A3027 RMK A01 T00730003  RH  062%=      5-min Rain = 0
KSGV 110015Z 20007KT 07/00 A3027 RMK A01 T00710002  RH  062%=      5-min Rain = 0
KSGV 110020Z 20007KT 07/00 A3027 RMK A01 T00700004  RH  064%=      5-min Rain = 0
KSGV 110025Z 20007KT 07/00 A3027 RMK A01 T00680003  RH  064%=      5-min Rain = 0
KSGV 110030Z 20007KT 06/00 A3027 RMK A01 T00640003  RH  066%=      5-min Rain = 0
KSGV 110035Z 20006KT 06/00 A3028 RMK A01 T006400-0  RH  064%=      5-min Rain = 0
KSGV 110040Z 20005KT 06/M00 A3028 RMK A01 T00641002  RH  063%=      5-min Rain = 0
KSGV 110045Z 20005KT 06/00 A3028 RMK A01 T00590001  RH  067%=      5-min Rain = 0
KSGV 110050Z 20005KT 06/00 A3028 RMK A01 T00550002  RH  070%=      5-min Rain = 0
KSGV 110055Z 20005KT 05/00 A3028 RMK A01 T00530002  RH  071%=      5-min Rain = 0
KSGV 110100Z 20006KT 05/M00 A3028 RMK A01 T00451004  RH  072%=      5-min Rain = 0
KSGV 110105Z 20007KT 05/00 A3028 RMK A01 T00480001  RH  073%=      5-min Rain = 0
KSGV 110110Z 20007KT 06/01 A3028 RMK A01 T00560010  RH  073%=      5-min Rain = 0
KSGV 110115Z 19008KT 06/01 A3028 RMK A01 T00610014  RH  073%=      5-min Rain = 0
KSGV 110120Z 20007KT 06/01 A3029 RMK A01 T00580014  RH  074%=      5-min Rain = 0
KSGV 110125Z 19007KT 05/02 A3029 RMK A01 T00540015  RH  077%=      5-min Rain = 0
KSGV 110130Z 20007KT 05/02 A3029 RMK A01 T00500015  RH  079%=      5-min Rain = 0
KSGV 110135Z 20007KT 05/02 A3029 RMK A01 T00490017  RH  081%=      5-min Rain = 0
KSGV 110140Z 21007KT 05/02 A3029 RMK A01 T00460016  RH  082%=      5-min Rain = 0
KSGV 110145Z 20007KT 04/02 A3029 RMK A01 T00430016  RH  084%=      5-min Rain = 0
KSGV 110150Z 20007KT 04/02 A3029 RMK A01 T00420017  RH  085%=      5-min Rain = 0
KSGV 110155Z 20007KT 04/02 A3029 RMK A01 T00400017  RH  086%=      5-min Rain = 0
KSGV 110200Z 21006KT 04/02 A3029 RMK A01 T00390018  RH  087%=      5-min Rain = 0
KSGV 110205Z 21007KT 04/02 A3029 RMK A01 T00380019  RH  088%=      5-min Rain = 0
KSGV 110210Z 21007KT 04/02 A3029 RMK A01 T00410022  RH  089%=      5-min Rain = 0
KSGV 110215Z 21006KT 04/02 A3029 RMK A01 T00400021  RH  089%=      5-min Rain = 0
KSGV 110220Z 21006KT 04/02 A3029 RMK A01 T00380020  RH  089%=      5-min Rain = 0
KSGV 110225Z 21006KT 04/02 A3029 RMK A01 T00360019  RH  090%=      5-min Rain = 0
KSGV 110230Z 21006KT 04/02 A3029 RMK A01 T00360020  RH  091%=      5-min Rain = 0
KSGV 110235Z 21006KT 04/02 A3029 RMK A01 T00360020  RH  091%=      5-min Rain = 0
KSGV 110240Z 21006KT 04/02 A3029 RMK A01 T00350020  RH  091%=      5-min Rain = 0
KSGV 110245Z 21006KT 03/02 A3029 RMK A01 T00340019  RH  092%=      5-min Rain = 0
KSGV 110250Z 21006KT 03/02 A3029 RMK A01 T00320018  RH  092%=      5-min Rain = 0
KSGV 110255Z 21006KT 03/02 A3029 RMK A01 T00310017  RH  092%=      5-min Rain = 0
KSGV 110300Z 22007KT 03/02 A303 RMK A01 T00290016  RH  093%=      5-min Rain = 0
KSGV 110305Z 22007KT 03/02 A3029 RMK A01 T00280016  RH  093%=      5-min Rain = 0
KSGV 110310Z 22007KT 03/02 A3029 RMK A01 T00280017  RH  094%=      5-min Rain = 0
KSGV 110315Z 22007KT 03/02 A3029 RMK A01 T00280016  RH  094%=      5-min Rain = 0
KSGV 110320Z 22007KT 03/01 A3029 RMK A01 T00250014  RH  094%=      5-min Rain = 0
KSGV 110325Z 22007KT 02/01 A3029 RMK A01 T00230013  RH  094%=      5-min Rain = 0
KSGV 110330Z 22007KT 02/01 A3029 RMK A01 T00220012  RH  095%=      5-min Rain = 0
KSGV 110335Z 22007KT 02/01 A3029 RMK A01 T00200011  RH  095%=      5-min Rain = 0
KSGV 110340Z 22006KT 02/01 A3029 RMK A01 T00190010  RH  096%=      5-min Rain = 0
KSGV 110345Z 22006KT 02/01 A3029 RMK A01 T00190011  RH  096%=      5-min Rain = 0
KSGV 110350Z 21006KT 02/01 A3029 RMK A01 T00180010  RH  096%=      5-min Rain = 0
KSGV 110355Z 21006KT 02/01 A3029 RMK A01 T00180011  RH  096%=      5-min Rain = 0
KSGV 110400Z 22007KT 02/01 A3029 RMK A01 T00180011  RH  096%=      5-min Rain = 0
KSGV 110405Z 22006KT 02/01 A3029 RMK A01 T00160009  RH  096%=      5-min Rain = 0
KSGV 110410Z 22006KT 01/01 A3029 RMK A01 T00140007  RH  097%=      5-min Rain = 0
KSGV 110415Z 22006KT 01/01 A3029 RMK A01 T00120005  RH  097%=      5-min Rain = 0
KSGV 110420Z 22005KT 01/00 A3029 RMK A01 T00100004  RH  097%=      5-min Rain = 0
KSGV 110425Z 23006KT 01/00 A303 RMK A01 T00090003  RH  097%=      5-min Rain = 0
KSGV 110430Z 23006KT 01/00 A3029 RMK A01 T00090003  RH  097%=      5-min Rain = 0
KSGV 110435Z 22007KT 01/00 A303 RMK A01 T00080003  RH  097%=      5-min Rain = 0
KSGV 110440Z 22007KT 01/00 A303 RMK A01 T00090004  RH  098%=      5-min Rain = 0
KSGV 110445Z 23007KT 01/01 A303 RMK A01 T00110006  RH  098%=      5-min Rain = 0
KSGV 110450Z 23007KT 01/01 A303 RMK A01 T00110006  RH  098%=      5-min Rain = 0
KSGV 110455Z 23007KT 01/01 A303 RMK A01 T00110006  RH  098%=      5-min Rain = 0
KSGV 110500Z 23007KT 01/01 A303 RMK A01 T00110007  RH  098%=      5-min Rain = 0
KSGV 110505Z 22007KT 01/01 A303 RMK A01 T00110007  RH  098%=      5-min Rain = 0
KSGV 110510Z 22007KT 01/01 A303 RMK A01 T00100005  RH  098%=      5-min Rain = 0
KSGV 110515Z 22007KT 01/01 A303 RMK A01 T00100005  RH  098%=      5-min Rain = 0
KSGV 110520Z 22007KT 01/01 A303 RMK A01 T00100006  RH  098%=      5-min Rain = 0
KSGV 110525Z 22007KT 01/01 A3029 RMK A01 T00090005  RH  098%=      5-min Rain = 0
KSGV 110530Z 23007KT 01/01 A3029 RMK A01 T00090005  RH  099%=      5-min Rain = 0
KSGV 110535Z 23006KT 01/01 A3029 RMK A01 T00080005  RH  099%=      5-min Rain = 0
KSGV 110540Z 23006KT 01/00 A3029 RMK A01 T00060003  RH  099%=      5-min Rain = 0
KSGV 110545Z 23006KT 01/00 A3029 RMK A01 T00050001  RH  099%=      5-min Rain = 0
KSGV 110550Z 23005KT 00/M00 A3028 RMK A01 T00031001  RH  099%=      5-min Rain = 0
KSGV 110555Z 22005KT 00/M00 A3028 RMK A01 T00011002  RH  099%=      5-min Rain = 0

Page generated in 0.0115 seconds.